sensor_id;sensor_type;location;lat;lon;timestamp;pressure;altitude;pressure_sealevel;temperature
28803;BMP280;15949;55.656;37.422;2023-04-01T00:00:09;98006.97;;;0.47
28803;BMP280;15949;55.656;37.422;2023-04-01T00:05:15;98020.84;;;0.46
28803;BMP280;15949;55.656;37.422;2023-04-01T00:10:21;98011.50;;;0.50
28803;BMP280;15949;55.656;37.422;2023-04-01T00:15:27;98011.66;;;0.45
28803;BMP280;15949;55.656;37.422;2023-04-01T00:20:33;98012.22;;;0.42
28803;BMP280;15949;55.656;37.422;2023-04-01T00:25:38;98005.28;;;0.42
28803;BMP280;15949;55.656;37.422;2023-04-01T00:30:44;97998.66;;;0.41
28803;BMP280;15949;55.656;37.422;2023-04-01T00:35:50;97986.16;;;0.40
28803;BMP280;15949;55.656;37.422;2023-04-01T00:40:57;97985.66;;;0.38
28803;BMP280;15949;55.656;37.422;2023-04-01T00:46:03;97989.56;;;0.35
28803;BMP280;15949;55.656;37.422;2023-04-01T00:51:13;97986.53;;;0.33
28803;BMP280;15949;55.656;37.422;2023-04-01T00:56:30;97986.75;;;0.23
28803;BMP280;15949;55.656;37.422;2023-04-01T01:01:38;97986.53;;;0.33
28803;BMP280;15949;55.656;37.422;2023-04-01T01:17:43;97987.31;;;0.34
28803;BMP280;15949;55.656;37.422;2023-04-01T01:39:06;97997.53;;;0.34
28803;BMP280;15949;55.656;37.422;2023-04-01T01:44:14;98002.09;;;0.37
28803;BMP280;15949;55.656;37.422;2023-04-01T01:49:21;98003.00;;;0.41
28803;BMP280;15949;55.656;37.422;2023-04-01T01:54:28;97999.41;;;0.42
28803;BMP280;15949;55.656;37.422;2023-04-01T01:59:35;98001.22;;;0.41
28803;BMP280;15949;55.656;37.422;2023-04-01T02:04:44;97999.88;;;0.44
28803;BMP280;15949;55.656;37.422;2023-04-01T02:09:51;98004.41;;;0.47
28803;BMP280;15949;55.656;37.422;2023-04-01T02:15:06;97999.56;;;0.45
28803;BMP280;15949;55.656;37.422;2023-04-01T02:20:15;98011.78;;;0.40
28803;BMP280;15949;55.656;37.422;2023-04-01T02:25:30;98002.44;;;0.44
28803;BMP280;15949;55.656;37.422;2023-04-01T02:30:39;98009.09;;;0.45
28803;BMP280;15949;55.656;37.422;2023-04-01T02:35:46;98023.41;;;0.46
28803;BMP280;15949;55.656;37.422;2023-04-01T02:40:58;98021.59;;;0.46
28803;BMP280;15949;55.656;37.422;2023-04-01T02:46:04;98021.59;;;0.46
28803;BMP280;15949;55.656;37.422;2023-04-01T02:51:09;98026.16;;;0.49
28803;BMP280;15949;55.656;37.422;2023-04-01T02:56:15;98026.16;;;0.49
28803;BMP280;15949;55.656;37.422;2023-04-01T03:01:21;98023.59;;;0.49
28803;BMP280;15949;55.656;37.422;2023-04-01T03:06:27;98028.41;;;0.51
28803;BMP280;15949;55.656;37.422;2023-04-01T03:11:33;98034.28;;;0.51
28803;BMP280;15949;55.656;37.422;2023-04-01T03:16:38;98038.31;;;0.44
28803;BMP280;15949;55.656;37.422;2023-04-01T03:21:44;98033.31;;;0.39
28803;BMP280;15949;55.656;37.422;2023-04-01T03:26:50;98032.38;;;0.35
28803;BMP280;15949;55.656;37.422;2023-04-01T03:31:55;98039.13;;;0.31
28803;BMP280;15949;55.656;37.422;2023-04-01T03:37:03;98047.75;;;0.35
28803;BMP280;15949;55.656;37.422;2023-04-01T03:42:08;98053.91;;;0.34
28803;BMP280;15949;55.656;37.422;2023-04-01T03:47:14;98057.81;;;0.31
28803;BMP280;15949;55.656;37.422;2023-04-01T03:52:19;98063.13;;;0.35
28803;BMP280;15949;55.656;37.422;2023-04-01T03:57:25;98074.69;;;0.32
28803;BMP280;15949;55.656;37.422;2023-04-01T04:02:31;98083.03;;;0.38
28803;BMP280;15949;55.656;37.422;2023-04-01T04:07:37;98085.31;;;0.39
28803;BMP280;15949;55.656;37.422;2023-04-01T04:12:43;98094.22;;;0.42
28803;BMP280;15949;55.656;37.422;2023-04-01T04:17:48;98090.88;;;0.41
28803;BMP280;15949;55.656;37.422;2023-04-01T04:22:54;98095.63;;;0.48
28803;BMP280;15949;55.656;37.422;2023-04-01T04:28:00;98098.03;;;0.53
28803;BMP280;15949;55.656;37.422;2023-04-01T04:33:05;98107.13;;;0.59
28803;BMP280;15949;55.656;37.422;2023-04-01T04:38:11;98104.28;;;0.61
28803;BMP280;15949;55.656;37.422;2023-04-01T04:43:17;98100.56;;;0.67
28803;BMP280;15949;55.656;37.422;2023-04-01T04:48:23;98104.06;;;0.71
28803;BMP280;15949;55.656;37.422;2023-04-01T04:53:30;98111.03;;;0.79
28803;BMP280;15949;55.656;37.422;2023-04-01T04:58:36;98114.41;;;0.88
28803;BMP280;15949;55.656;37.422;2023-04-01T05:03:42;98120.00;;;0.90
28803;BMP280;15949;55.656;37.422;2023-04-01T05:08:48;98127.28;;;0.96
28803;BMP280;15949;55.656;37.422;2023-04-01T05:13:54;98122.50;;;1.03
28803;BMP280;15949;55.656;37.422;2023-04-01T05:18:59;98139.75;;;1.12
28803;BMP280;15949;55.656;37.422;2023-04-01T05:24:08;98148.38;;;1.24
28803;BMP280;15949;55.656;37.422;2023-04-01T05:29:14;98149.47;;;1.32
28803;BMP280;15949;55.656;37.422;2023-04-01T05:34:20;98152.09;;;1.40
28803;BMP280;15949;55.656;37.422;2023-04-01T05:39:25;98150.13;;;1.46
28803;BMP280;15949;55.656;37.422;2023-04-01T05:44:31;98148.97;;;1.52
28803;BMP280;15949;55.656;37.422;2023-04-01T05:49:37;98152.78;;;1.63
28803;BMP280;15949;55.656;37.422;2023-04-01T05:54:42;98155.22;;;1.77
28803;BMP280;15949;55.656;37.422;2023-04-01T05:59:48;98163.28;;;1.92
28803;BMP280;15949;55.656;37.422;2023-04-01T06:05:03;98168.09;;;2.02
28803;BMP280;15949;55.656;37.422;2023-04-01T06:10:20;98167.81;;;1.95
28803;BMP280;15949;55.656;37.422;2023-04-01T06:16:07;98180.78;;;1.90
28803;BMP280;15949;55.656;37.422;2023-04-01T06:26:37;98186.56;;;2.13
28803;BMP280;15949;55.656;37.422;2023-04-01T06:31:54;98191.72;;;2.39
28803;BMP280;15949;55.656;37.422;2023-04-01T06:53:53;98189.09;;;3.54
28803;BMP280;15949;55.656;37.422;2023-04-01T06:59:04;98197.81;;;3.70
28803;BMP280;15949;55.656;37.422;2023-04-01T07:04:16;98201.91;;;3.71
28803;BMP280;15949;55.656;37.422;2023-04-01T07:09:32;98209.88;;;3.78
28803;BMP280;15949;55.656;37.422;2023-04-01T07:14:41;98212.56;;;3.90
28803;BMP280;15949;55.656;37.422;2023-04-01T07:19:59;98214.56;;;4.05
28803;BMP280;15949;55.656;37.422;2023-04-01T07:25:58;98212.09;;;4.18
28803;BMP280;15949;55.656;37.422;2023-04-01T07:36:03;98216.19;;;4.72
28803;BMP280;15949;55.656;37.422;2023-04-01T07:41:44;98213.09;;;4.79
28803;BMP280;15949;55.656;37.422;2023-04-01T07:52:27;98229.06;;;5.05
28803;BMP280;15949;55.656;37.422;2023-04-01T07:58:28;98231.56;;;5.13
28803;BMP280;15949;55.656;37.422;2023-04-01T08:25:05;98244.31;;;5.67
28803;BMP280;15949;55.656;37.422;2023-04-01T08:41:00;98253.88;;;5.79
28803;BMP280;15949;55.656;37.422;2023-04-01T08:57:12;98268.31;;;6.44
28803;BMP280;15949;55.656;37.422;2023-04-01T09:12:51;98271.47;;;6.37
28803;BMP280;15949;55.656;37.422;2023-04-01T09:39:35;98294.28;;;6.87
28803;BMP280;15949;55.656;37.422;2023-04-01T09:56:00;98306.59;;;7.84
28803;BMP280;15949;55.656;37.422;2023-04-01T10:17:58;98323.81;;;8.84
28803;BMP280;15949;55.656;37.422;2023-04-01T11:33:35;98340.28;;;10.16
28803;BMP280;15949;55.656;37.422;2023-04-01T11:44:11;98351.19;;;9.69
28803;BMP280;15949;55.656;37.422;2023-04-01T12:00:38;98346.88;;;9.31
28803;BMP280;15949;55.656;37.422;2023-04-01T12:44:29;98371.72;;;8.68
28803;BMP280;15949;55.656;37.422;2023-04-01T12:55:42;98366.91;;;8.51
28803;BMP280;15949;55.656;37.422;2023-04-01T13:01:23;98379.91;;;8.51
28803;BMP280;15949;55.656;37.422;2023-04-01T13:28:30;98406.06;;;7.76
28803;BMP280;15949;55.656;37.422;2023-04-01T13:33:50;98412.66;;;7.58
28803;BMP280;15949;55.656;37.422;2023-04-01T13:39:20;98410.63;;;7.51
28803;BMP280;15949;55.656;37.422;2023-04-01T13:44:54;98426.56;;;7.38
28803;BMP280;15949;55.656;37.422;2023-04-01T13:50:14;98430.53;;;7.19
28803;BMP280;15949;55.656;37.422;2023-04-01T13:55:46;98428.97;;;7.03
28803;BMP280;15949;55.656;37.422;2023-04-01T14:06:30;98439.34;;;6.63
28803;BMP280;15949;55.656;37.422;2023-04-01T14:17:13;98439.75;;;6.53
28803;BMP280;15949;55.656;37.422;2023-04-01T14:44:23;98463.69;;;6.26
28803;BMP280;15949;55.656;37.422;2023-04-01T14:49:42;98471.47;;;6.26
28803;BMP280;15949;55.656;37.422;2023-04-01T14:54:49;98477.16;;;6.19
28803;BMP280;15949;55.656;37.422;2023-04-01T15:00:16;98479.22;;;6.13
28803;BMP280;15949;55.656;37.422;2023-04-01T15:22:20;98502.19;;;5.82
28803;BMP280;15949;55.656;37.422;2023-04-01T15:38:44;98528.88;;;5.74
28803;BMP280;15949;55.656;37.422;2023-04-01T15:43:52;98527.75;;;5.63
28803;BMP280;15949;55.656;37.422;2023-04-01T15:54:32;98544.53;;;5.57
28803;BMP280;15949;55.656;37.422;2023-04-01T16:11:02;98573.00;;;5.48
28803;BMP280;15949;55.656;37.422;2023-04-01T16:21:44;98589.47;;;5.44
28803;BMP280;15949;55.656;37.422;2023-04-01T16:27:04;98580.69;;;5.36
28803;BMP280;15949;55.656;37.422;2023-04-01T16:32:29;98587.25;;;5.34
28803;BMP280;15949;55.656;37.422;2023-04-01T16:37:45;98583.91;;;5.33
28803;BMP280;15949;55.656;37.422;2023-04-01T16:43:10;98588.75;;;5.35
28803;BMP280;15949;55.656;37.422;2023-04-01T16:48:22;98597.69;;;5.37
28803;BMP280;15949;55.656;37.422;2023-04-01T16:53:48;98605.63;;;5.32
28803;BMP280;15949;55.656;37.422;2023-04-01T17:04:44;98612.19;;;5.30
28803;BMP280;15949;55.656;37.422;2023-04-01T17:15:42;98617.81;;;5.23
28803;BMP280;15949;55.656;37.422;2023-04-01T17:21:38;98616.63;;;5.21
28803;BMP280;15949;55.656;37.422;2023-04-01T17:26:55;98620.91;;;5.17
28803;BMP280;15949;55.656;37.422;2023-04-01T17:32:12;98615.72;;;5.17
28803;BMP280;15949;55.656;37.422;2023-04-01T18:10:25;98639.19;;;5.03
28803;BMP280;15949;55.656;37.422;2023-04-01T18:20:51;98647.84;;;4.98
28803;BMP280;15949;55.656;37.422;2023-04-01T18:26:07;98662.25;;;4.99
28803;BMP280;15949;55.656;37.422;2023-04-01T18:31:19;98662.25;;;4.99
28803;BMP280;15949;55.656;37.422;2023-04-01T18:37:02;98675.78;;;4.96
28803;BMP280;15949;55.656;37.422;2023-04-01T18:42:41;98690.66;;;4.99
28803;BMP280;15949;55.656;37.422;2023-04-01T18:48:08;98682.34;;;5.02
28803;BMP280;15949;55.656;37.422;2023-04-01T19:09:25;98693.41;;;4.94
28803;BMP280;15949;55.656;37.422;2023-04-01T19:15:07;98697.09;;;4.93
28803;BMP280;15949;55.656;37.422;2023-04-01T19:20:41;98697.09;;;4.93
28803;BMP280;15949;55.656;37.422;2023-04-01T19:25:51;98709.06;;;4.98
28803;BMP280;15949;55.656;37.422;2023-04-01T19:36:44;98705.88;;;5.01
28803;BMP280;15949;55.656;37.422;2023-04-01T19:47:12;98720.59;;;5.00
28803;BMP280;15949;55.656;37.422;2023-04-01T19:52:25;98711.94;;;4.96
28803;BMP280;15949;55.656;37.422;2023-04-01T20:03:00;98717.56;;;4.98
28803;BMP280;15949;55.656;37.422;2023-04-01T20:08:45;98723.94;;;5.01
28803;BMP280;15949;55.656;37.422;2023-04-01T20:14:15;98722.13;;;5.01
28803;BMP280;15949;55.656;37.422;2023-04-01T20:19:36;98721.66;;;4.99
28803;BMP280;15949;55.656;37.422;2023-04-01T20:24:45;98722.41;;;5.00
28803;BMP280;15949;55.656;37.422;2023-04-01T20:45:55;98725.59;;;5.05
28803;BMP280;15949;55.656;37.422;2023-04-01T20:57:04;98736.56;;;5.02
28803;BMP280;15949;55.656;37.422;2023-04-01T21:13:19;98736.56;;;5.02
28803;BMP280;15949;55.656;37.422;2023-04-01T21:18:47;98743.25;;;5.03
28803;BMP280;15949;55.656;37.422;2023-04-01T21:34:57;98751.72;;;5.13
28803;BMP280;15949;55.656;37.422;2023-04-01T21:46:10;98760.53;;;5.11
28803;BMP280;15949;55.656;37.422;2023-04-01T22:13:19;98769.81;;;5.13
28803;BMP280;15949;55.656;37.422;2023-04-01T22:18:38;98772.84;;;5.15
28803;BMP280;15949;55.656;37.422;2023-04-01T22:34:49;98769.59;;;5.18
28803;BMP280;15949;55.656;37.422;2023-04-01T22:51:18;98772.69;;;5.11
28803;BMP280;15949;55.656;37.422;2023-04-01T22:56:31;98779.19;;;5.08
28803;BMP280;15949;55.656;37.422;2023-04-01T23:01:43;98778.16;;;5.09
28803;BMP280;15949;55.656;37.422;2023-04-01T23:06:56;98772.41;;;5.13
28803;BMP280;15949;55.656;37.422;2023-04-01T23:12:07;98773.13;;;5.13
28803;BMP280;15949;55.656;37.422;2023-04-01T23:33:23;98791.81;;;5.19
28803;BMP280;15949;55.656;37.422;2023-04-01T23:38:35;98791.81;;;5.19
28803;BMP280;15949;55.656;37.422;2023-04-01T23:43:43;98779.03;;;5.22
28803;BMP280;15949;55.656;37.422;2023-04-01T23:48:51;98789.69;;;5.21
28803;BMP280;15949;55.656;37.422;2023-04-01T23:54:18;98786.06;;;5.22
28803;BMP280;15949;55.656;37.422;2023-04-01T23:59:32;98786.31;;;5.29
